createdAt,value
2023-03-18T00:00:17.051Z,100437.75
2023-03-18T00:02:47.975Z,100436.36
2023-03-18T00:05:16.224Z,100439.28
2023-03-18T00:07:45.444Z,100435.31
2023-03-18T00:10:13.568Z,100429.60
2023-03-18T00:12:41.736Z,100429.95
2023-03-18T00:15:10.568Z,100433.91
2023-03-18T00:17:40.330Z,100431.66
2023-03-18T00:20:09.505Z,100434.45
2023-03-18T00:22:37.993Z,100436.38
2023-03-18T00:25:07.245Z,100431.39
2023-03-18T00:27:35.956Z,100435.55
2023-03-18T00:30:05.657Z,100434.71
2023-03-18T00:32:34.495Z,100435.96
2023-03-18T00:35:02.568Z,100435.98
2023-03-18T00:37:31.765Z,100433.38
2023-03-18T00:40:07.961Z,100433.91
2023-03-18T00:42:47.653Z,100434.80
2023-03-18T00:45:16.289Z,100432.73
2023-03-18T00:47:50.288Z,100435.32
2023-03-18T00:50:20.501Z,100438.58
2023-03-18T00:52:49.204Z,100441.66
2023-03-18T00:55:17.529Z,100443.73
2023-03-18T00:57:45.536Z,100443.89
2023-03-18T01:00:17.056Z,100442.69
2023-03-18T01:02:45.777Z,100447.89
2023-03-18T01:05:14.352Z,100449.47
2023-03-18T01:07:42.762Z,100447.56
2023-03-18T01:10:13.184Z,100447.57
2023-03-18T01:12:44.122Z,100445.30
2023-03-18T01:15:12.789Z,100445.81
2023-03-18T01:17:40.950Z,100447.02
2023-03-18T01:20:11.648Z,100445.93
2023-03-18T01:22:43.467Z,100451.77
2023-03-18T01:25:12.165Z,100454.70
2023-03-18T01:27:40.811Z,100456.27
2023-03-18T01:30:10.005Z,100458.85
2023-03-18T01:32:48.067Z,100461.97
2023-03-18T01:35:16.433Z,100461.77
2023-03-18T01:37:47.170Z,100462.14
2023-03-18T01:40:16.219Z,100463.19
2023-03-18T01:42:47.469Z,100460.27
2023-03-18T01:45:18.206Z,100458.02
2023-03-18T01:47:47.626Z,100459.57
2023-03-18T01:50:18.913Z,100463.01
2023-03-18T01:52:46.934Z,100463.83
2023-03-18T01:55:17.163Z,100464.69
2023-03-18T01:57:45.444Z,100464.70
2023-03-18T02:00:15.638Z,100468.52
2023-03-18T02:02:45.570Z,100469.06
2023-03-18T02:05:14.703Z,100469.42
2023-03-18T02:07:45.834Z,100474.77
2023-03-18T02:10:34.556Z,100475.96
2023-03-18T02:13:04.631Z,100475.45
2023-03-18T02:15:43.124Z,100476.14
2023-03-18T02:18:34.585Z,100475.61
2023-03-18T02:21:02.827Z,100479.78
2023-03-18T02:23:42.948Z,100482.41
2023-03-18T02:26:20.539Z,100486.93
2023-03-18T02:28:49.545Z,100489.20
2023-03-18T02:31:19.184Z,100490.95
2023-03-18T02:33:47.350Z,100491.46
2023-03-18T02:36:21.799Z,100492.48
2023-03-18T02:38:51.526Z,100492.81
2023-03-18T02:41:26.522Z,100493.00
2023-03-18T02:43:54.563Z,100496.80
2023-03-18T02:46:31.164Z,100498.52
2023-03-18T02:49:00.631Z,100497.29
2023-03-18T02:51:30.372Z,100498.65
2023-03-18T02:54:08.466Z,100501.77
2023-03-18T02:56:38.399Z,100500.59
2023-03-18T02:59:07.599Z,100499.56
2023-03-18T03:01:36.907Z,100499.58
2023-03-18T03:04:05.312Z,100499.21
2023-03-18T03:06:34.443Z,100499.36
2023-03-18T03:09:03.651Z,100498.34
2023-03-18T03:11:31.829Z,100501.92
2023-03-18T03:14:07.121Z,100503.98
2023-03-18T03:16:37.043Z,100503.10
2023-03-18T03:19:06.033Z,100507.26
2023-03-18T03:21:36.180Z,100507.80
2023-03-18T03:24:04.528Z,100508.84
2023-03-18T03:26:36.761Z,100512.61
2023-03-18T03:29:07.239Z,100512.75
2023-03-18T03:31:35.327Z,100516.54
2023-03-18T03:34:06.166Z,100512.73
2023-03-18T03:36:34.298Z,100516.20
2023-03-18T03:39:04.359Z,100520.20
2023-03-18T03:41:36.792Z,100519.53
2023-03-18T03:44:05.075Z,100517.95
2023-03-18T03:46:33.158Z,100518.13
2023-03-18T03:49:01.321Z,100518.09
2023-03-18T03:51:30.738Z,100516.86
2023-03-18T03:53:59.425Z,100518.23
2023-03-18T03:56:28.523Z,100518.43
2023-03-18T03:58:56.695Z,100519.79
2023-03-18T04:01:25.752Z,100519.57
2023-03-18T04:03:56.015Z,100521.23
2023-03-18T04:06:24.091Z,100519.27
2023-03-18T04:09:00.432Z,100516.66
2023-03-18T04:11:28.552Z,100516.80
2023-03-18T04:13:56.691Z,100519.70
2023-03-18T04:16:28.780Z,100520.53
2023-03-18T04:18:57.741Z,100522.77
2023-03-18T04:21:25.787Z,100527.12
2023-03-18T04:23:57.454Z,100524.90
2023-03-18T04:26:26.191Z,100525.77
2023-03-18T04:28:57.537Z,100527.84
2023-03-18T04:31:25.977Z,100526.91
2023-03-18T04:33:55.573Z,100524.95
2023-03-18T04:36:24.489Z,100528.23
2023-03-18T04:38:52.722Z,100525.45
2023-03-18T04:41:22.634Z,100528.36
2023-03-18T04:43:50.803Z,100528.39
2023-03-18T04:46:19.369Z,100528.23
2023-03-18T04:48:47.532Z,100525.31
2023-03-18T04:51:15.606Z,100528.06
2023-03-18T04:53:49.500Z,100528.05
2023-03-18T04:56:18.846Z,100526.86
2023-03-18T04:58:50.974Z,100526.70
2023-03-18T05:01:23.548Z,100530.18
2023-03-18T05:03:51.977Z,100531.58
2023-03-18T05:06:30.893Z,100534.73
2023-03-18T05:09:05.555Z,100536.85
2023-03-18T05:11:39.812Z,100538.09
2023-03-18T05:14:21.447Z,100543.16
2023-03-18T05:16:50.299Z,100542.14
2023-03-18T05:19:19.966Z,100543.70
2023-03-18T05:21:54.357Z,100543.73
2023-03-18T05:24:23.048Z,100545.64
2023-03-18T05:27:00.228Z,100546.16
2023-03-18T05:29:34.686Z,100545.49
2023-03-18T05:32:11.646Z,100540.88
2023-03-18T05:34:40.244Z,100539.53
2023-03-18T05:37:09.122Z,100539.37
2023-03-18T05:39:40.366Z,100541.80
2023-03-18T05:42:11.678Z,100544.05
2023-03-18T05:44:40.658Z,100546.27
2023-03-18T05:47:10.894Z,100543.50
2023-03-18T05:50:00.013Z,100544.77
2023-03-18T05:52:29.319Z,100545.31
2023-03-18T05:55:01.234Z,100550.13
2023-03-18T05:57:32.863Z,100556.18
2023-03-18T06:00:05.057Z,100557.39
2023-03-18T06:02:56.485Z,100556.53
2023-03-18T06:05:24.930Z,100555.52
2023-03-18T06:07:54.119Z,100557.28
2023-03-18T06:10:23.045Z,100558.19
2023-03-18T06:12:55.500Z,100564.30
2023-03-18T06:15:24.478Z,100565.35
2023-03-18T06:17:54.100Z,100566.92
2023-03-18T06:20:22.658Z,100569.05
2023-03-18T06:22:52.899Z,100567.84
2023-03-18T06:25:21.901Z,100569.20
2023-03-18T06:27:50.688Z,100571.65
2023-03-18T06:30:25.046Z,100569.39
2023-03-18T06:32:57.246Z,100575.10
2023-03-18T06:35:32.642Z,100572.49
2023-03-18T06:38:01.628Z,100574.08
2023-03-18T06:40:30.197Z,100577.59
2023-03-18T06:42:59.176Z,100578.85
2023-03-18T06:45:34.510Z,100576.28
2023-03-18T06:48:07.324Z,100580.96
2023-03-18T06:50:39.775Z,100579.56
2023-03-18T06:53:12.859Z,100581.33
2023-03-18T06:55:41.573Z,100580.33
2023-03-18T06:58:10.636Z,100578.27
2023-03-18T07:00:47.679Z,100583.42
2023-03-18T07:03:22.725Z,100584.11
2023-03-18T07:05:52.526Z,100582.89
2023-03-18T07:08:23.738Z,100581.34
2023-03-18T07:10:54.025Z,100581.36
2023-03-18T07:13:27.090Z,100584.34
2023-03-18T07:16:00.537Z,100580.40
2023-03-18T07:18:28.921Z,100577.34
2023-03-18T07:20:59.768Z,100572.70
2023-03-18T07:23:28.872Z,100573.60
2023-03-18T07:25:58.900Z,100576.71
2023-03-18T07:28:27.172Z,100577.21
2023-03-18T07:30:55.427Z,100580.83
2023-03-18T07:33:26.117Z,100582.88
2023-03-18T07:35:56.868Z,100583.51
2023-03-18T07:38:25.604Z,100584.55
2023-03-18T07:40:53.673Z,100586.29
2023-03-18T07:43:22.547Z,100585.61
2023-03-18T07:45:52.746Z,100582.36
2023-03-18T07:48:22.311Z,100583.57
2023-03-18T07:50:50.374Z,100586.68
2023-03-18T07:53:19.198Z,100587.76
2023-03-18T07:55:47.430Z,100585.02
2023-03-18T07:58:15.553Z,100585.02
2023-03-18T08:00:45.282Z,100582.30
2023-03-18T08:03:14.298Z,100580.98
2023-03-18T08:05:43.712Z,100578.95
2023-03-18T08:08:12.685Z,100580.20
2023-03-18T08:10:42.393Z,100582.81
2023-03-18T08:13:13.244Z,100580.40
2023-03-18T08:15:41.511Z,100579.55
2023-03-18T08:18:10.504Z,100578.17
2023-03-18T08:20:39.832Z,100579.73
2023-03-18T08:23:08.344Z,100577.16
2023-03-18T08:25:36.232Z,100578.71
2023-03-18T08:28:07.710Z,100579.59
2023-03-18T08:30:35.997Z,100582.21
2023-03-18T08:33:04.131Z,100581.34
2023-03-18T08:35:34.306Z,100585.16
2023-03-18T08:38:07.036Z,100580.83
2023-03-18T08:40:39.973Z,100581.17
2023-03-18T08:43:08.505Z,100581.88
2023-03-18T08:45:36.534Z,100583.42
2023-03-18T08:48:05.378Z,100580.13
2023-03-18T08:50:35.973Z,100576.85
2023-03-18T08:53:04.431Z,100578.92
2023-03-18T08:55:37.243Z,100579.44
2023-03-18T08:58:05.916Z,100575.95
2023-03-18T09:00:34.963Z,100573.33
2023-03-18T09:03:04.135Z,100573.31
2023-03-18T09:05:33.105Z,100573.30
2023-03-18T09:08:01.181Z,100576.26
2023-03-18T09:10:30.424Z,100572.41
2023-03-18T09:12:58.435Z,100575.34
2023-03-18T09:15:27.476Z,100575.73
2023-03-18T09:18:10.433Z,100578.52
2023-03-18T09:20:40.418Z,100578.18
2023-03-18T09:23:09.236Z,100578.88
2023-03-18T09:25:39.052Z,100579.73
2023-03-18T09:28:06.999Z,100575.75
2023-03-18T09:30:38.241Z,100577.51
2023-03-18T09:33:07.822Z,100577.87
2023-03-18T09:35:36.711Z,100578.58
2023-03-18T09:38:06.789Z,100577.01
2023-03-18T09:40:37.947Z,100579.44
2023-03-18T09:43:25.659Z,100578.91
2023-03-18T09:46:00.688Z,100576.83
2023-03-18T09:48:34.894Z,100579.09
2023-03-18T09:51:19.395Z,100579.78
2023-03-18T09:53:52.246Z,100574.58
2023-03-18T09:56:24.862Z,100574.75
2023-03-18T09:58:53.946Z,100583.23
2023-03-18T10:01:22.881Z,100582.89
2023-03-18T10:03:51.116Z,100583.41
2023-03-18T10:06:20.617Z,100580.46
2023-03-18T10:08:54.784Z,100579.77
2023-03-18T10:11:24.155Z,100578.91
2023-03-18T10:13:54.680Z,100578.40
2023-03-18T10:16:24.009Z,100576.66
2023-03-18T10:18:52.091Z,100574.58
2023-03-18T10:21:27.756Z,100573.20
2023-03-18T10:23:58.301Z,100570.58
2023-03-18T10:26:36.071Z,100574.05
2023-03-18T10:29:23.116Z,100573.50
2023-03-18T10:32:11.775Z,100567.91
2023-03-18T10:34:41.246Z,100565.94
2023-03-18T10:37:21.867Z,100565.20
2023-03-18T10:39:50.249Z,100564.84
2023-03-18T10:42:20.782Z,100559.46
2023-03-18T10:44:49.240Z,100564.17
2023-03-18T10:47:19.869Z,100560.86
2023-03-18T10:49:51.763Z,100560.16
2023-03-18T10:52:46.487Z,100559.77
2023-03-18T10:55:18.732Z,100560.63
2023-03-18T10:57:47.913Z,100562.94
2023-03-18T11:00:26.039Z,100565.23
2023-03-18T11:02:55.417Z,100567.88
2023-03-18T11:05:31.841Z,100563.67
2023-03-18T11:08:01.364Z,100561.20
2023-03-18T11:10:32.280Z,100562.23
2023-03-18T11:13:02.552Z,100562.02
2023-03-18T11:15:34.758Z,100561.99
2023-03-18T11:18:03.363Z,100557.14
2023-03-18T11:20:43.253Z,100560.27
2023-03-18T11:23:46.247Z,100555.55
2023-03-18T11:26:20.904Z,100551.73
2023-03-18T11:28:49.695Z,100548.41
2023-03-18T11:31:18.842Z,100551.81
2023-03-18T11:33:47.429Z,100546.18
2023-03-18T11:36:27.030Z,100544.64
2023-03-18T11:38:56.315Z,100543.14
2023-03-18T11:41:24.940Z,100540.36
2023-03-18T11:44:00.547Z,100536.61
2023-03-18T11:47:04.529Z,100537.60
2023-03-18T11:49:32.857Z,100535.98
2023-03-18T11:52:04.249Z,100537.05
2023-03-18T11:54:42.676Z,100539.87
2023-03-18T11:57:19.098Z,100533.84
2023-03-18T12:00:00.987Z,100535.77
2023-03-18T12:02:35.636Z,100536.94
2023-03-18T12:05:26.697Z,100532.54
2023-03-18T12:07:57.734Z,100529.13
2023-03-18T12:10:29.908Z,100528.49
2023-03-18T12:13:14.223Z,100529.58
2023-03-18T12:15:48.562Z,100524.02
2023-03-18T12:18:23.229Z,100519.19
2023-03-18T12:20:55.584Z,100520.23
2023-03-18T12:23:44.663Z,100511.73
2023-03-18T12:26:16.108Z,100511.73
2023-03-18T12:28:50.661Z,100509.48
2023-03-18T12:31:55.614Z,100504.61
2023-03-18T12:34:33.530Z,100504.63
2023-03-18T12:37:08.956Z,100503.23
2023-03-18T12:39:41.927Z,100498.52
2023-03-18T12:42:29.504Z,100501.62
2023-03-18T12:44:58.166Z,100495.16
2023-03-18T12:47:41.138Z,100496.90
2023-03-18T12:50:19.812Z,100492.56
2023-03-18T12:52:48.731Z,100494.45
2023-03-18T12:55:21.863Z,100493.57
2023-03-18T12:57:54.624Z,100492.85
2023-03-18T13:00:28.935Z,100493.36
2023-03-18T13:03:00.210Z,100484.33
2023-03-18T13:05:37.072Z,100487.95
2023-03-18T13:08:05.590Z,100486.52
2023-03-18T13:10:34.909Z,100484.59
2023-03-18T13:13:04.065Z,100481.44
2023-03-18T13:15:43.478Z,100473.26
2023-03-18T13:18:14.957Z,100469.08
2023-03-18T13:20:42.889Z,100464.52
2023-03-18T13:23:44.103Z,100462.61
2023-03-18T13:26:30.733Z,100458.92
2023-03-18T13:29:19.952Z,100458.89
2023-03-18T13:31:54.098Z,100456.44
2023-03-18T13:34:40.858Z,100456.59
2023-03-18T13:37:36.399Z,100453.79
2023-03-18T13:40:20.129Z,100457.09
2023-03-18T13:42:49.464Z,100456.37
2023-03-18T13:45:24.402Z,100456.90
2023-03-18T13:47:56.479Z,100454.11
2023-03-18T13:50:25.417Z,100454.62
2023-03-18T13:52:54.174Z,100457.23
2023-03-18T13:55:26.486Z,100459.64
2023-03-18T13:58:18.291Z,100462.23
2023-03-18T14:01:09.250Z,100461.35
2023-03-18T14:03:41.811Z,100459.25
2023-03-18T14:06:32.037Z,100458.55
2023-03-18T14:09:00.642Z,100458.02
2023-03-18T14:11:45.283Z,100456.45
2023-03-18T14:14:32.492Z,100457.86
2023-03-18T14:17:00.707Z,100457.36
2023-03-18T14:19:34.223Z,100456.14
2023-03-18T14:22:13.854Z,100453.89
2023-03-18T14:24:44.281Z,100453.52
2023-03-18T14:27:17.394Z,100450.70
2023-03-18T14:29:47.423Z,100454.88
2023-03-18T14:32:31.222Z,100449.47
2023-03-18T14:35:24.865Z,100448.08
2023-03-18T14:37:55.060Z,100451.35
2023-03-18T14:40:23.124Z,100446.98
2023-03-18T14:42:53.995Z,100448.52
2023-03-18T14:45:27.727Z,100444.20
2023-03-18T14:47:59.792Z,100444.37
2023-03-18T14:51:00.841Z,100444.19
2023-03-18T14:53:49.214Z,100442.60
2023-03-18T14:56:43.950Z,100441.90
2023-03-18T14:59:14.858Z,100441.02
2023-03-18T15:01:47.233Z,100435.78
2023-03-18T15:04:18.117Z,100434.57
2023-03-18T15:06:46.506Z,100432.66
2023-03-18T15:09:19.412Z,100430.06
2023-03-18T15:11:48.324Z,100427.83
2023-03-18T15:14:30.352Z,100429.23
2023-03-18T15:16:59.422Z,100433.77
2023-03-18T15:19:27.917Z,100433.75
2023-03-18T15:21:56.840Z,100430.47
2023-03-18T15:24:26.872Z,100429.23
2023-03-18T15:26:55.877Z,100431.84
2023-03-18T15:29:25.767Z,100428.52
2023-03-18T15:31:53.951Z,100435.32
2023-03-18T15:34:23.209Z,100434.83
2023-03-18T15:37:01.630Z,100439.02
2023-03-18T15:39:36.208Z,100439.09
2023-03-18T15:42:14.422Z,100440.19
2023-03-18T15:44:44.114Z,100439.16
2023-03-18T15:47:20.301Z,100440.94
2023-03-18T15:49:53.663Z,100443.21
2023-03-18T15:52:25.273Z,100443.76
2023-03-18T15:54:53.643Z,100442.73
2023-03-18T15:57:29.236Z,100441.54
2023-03-18T15:59:58.611Z,100436.72
2023-03-18T16:02:27.629Z,100442.13
2023-03-18T16:05:09.488Z,100437.99
2023-03-18T16:07:38.762Z,100439.59
2023-03-18T16:10:07.076Z,100438.39
2023-03-18T16:12:39.590Z,100436.35
2023-03-18T16:15:10.542Z,100435.83
2023-03-18T16:17:39.244Z,100439.67
2023-03-18T16:20:14.992Z,100440.20
2023-03-18T16:22:43.053Z,100444.05
2023-03-18T16:25:14.052Z,100445.44
2023-03-18T16:27:43.440Z,100448.59
2023-03-18T16:30:17.909Z,100445.48
2023-03-18T16:32:47.456Z,100446.70
2023-03-18T16:35:16.097Z,100447.41
2023-03-18T16:37:44.400Z,100448.13
2023-03-18T16:40:22.156Z,100445.19
2023-03-18T16:42:51.127Z,100447.63
2023-03-18T16:45:24.302Z,100451.46
2023-03-18T16:47:59.496Z,100448.88
2023-03-18T16:50:30.513Z,100446.81
2023-03-18T16:52:58.648Z,100448.02
2023-03-18T16:55:28.327Z,100446.30
2023-03-18T16:58:00.715Z,100444.89
2023-03-18T17:00:32.904Z,100445.08
2023-03-18T17:03:01.766Z,100440.23
2023-03-18T17:05:34.841Z,100440.77
2023-03-18T17:08:03.507Z,100442.16
2023-03-18T17:10:31.703Z,100443.20
2023-03-18T17:13:00.388Z,100443.04
2023-03-18T17:15:29.292Z,100443.91
2023-03-18T17:17:59.744Z,100444.27
2023-03-18T17:20:29.706Z,100445.31
2023-03-18T17:23:02.110Z,100448.78
2023-03-18T17:25:30.511Z,100450.17
2023-03-18T17:27:59.938Z,100452.44
2023-03-18T17:30:28.545Z,100455.39
2023-03-18T17:33:00.735Z,100457.13
2023-03-18T17:35:29.721Z,100459.23
2023-03-18T17:37:57.966Z,100459.40
2023-03-18T17:40:28.618Z,100459.23
2023-03-18T17:43:01.674Z,100459.22
2023-03-18T17:45:32.507Z,100459.73
2023-03-18T17:48:14.489Z,100464.78
2023-03-18T17:50:43.363Z,100465.83
2023-03-18T17:53:31.557Z,100462.52
2023-03-18T17:55:59.767Z,100464.45
2023-03-18T17:58:30.163Z,100463.23
2023-03-18T18:01:03.759Z,100460.64
2023-03-18T18:03:31.788Z,100456.83
2023-03-18T18:06:00.592Z,100457.69
2023-03-18T18:08:29.454Z,100462.02
2023-03-18T18:11:20.197Z,100458.39
2023-03-18T18:13:48.920Z,100461.70
2023-03-18T18:16:17.042Z,100455.80
2023-03-18T18:18:49.814Z,100460.48
2023-03-18T18:21:21.942Z,100460.64
2023-03-18T18:23:49.914Z,100459.43
2023-03-18T18:26:18.429Z,100459.45
2023-03-18T18:28:48.246Z,100461.52
2023-03-18T18:31:19.516Z,100465.84
2023-03-18T18:33:50.061Z,100467.22
2023-03-18T18:36:18.458Z,100462.90
2023-03-18T18:38:46.614Z,100461.33
2023-03-18T18:41:15.505Z,100463.58
2023-03-18T18:43:45.321Z,100459.07
2023-03-18T18:46:17.861Z,100463.21
2023-03-18T18:48:47.516Z,100460.09
2023-03-18T18:51:17.642Z,100460.96
2023-03-18T18:53:46.496Z,100461.13
2023-03-18T18:56:14.681Z,100462.34
2023-03-18T18:58:43.613Z,100463.90
2023-03-18T19:01:13.115Z,100460.05
2023-03-18T19:03:42.185Z,100459.35
2023-03-18T19:06:16.648Z,100463.33
2023-03-18T19:08:53.148Z,100466.27
2023-03-18T19:11:21.299Z,100467.81
2023-03-18T19:13:51.037Z,100470.73
2023-03-18T19:16:25.374Z,100471.75
2023-03-18T19:18:53.708Z,100472.92
2023-03-18T19:21:24.563Z,100474.80
2023-03-18T19:23:52.903Z,100476.69
2023-03-18T19:26:21.838Z,100474.25
2023-03-18T19:29:01.593Z,100477.02
2023-03-18T19:31:35.134Z,100473.71
2023-03-18T19:34:05.644Z,100476.98
2023-03-18T19:36:37.719Z,100476.45
2023-03-18T19:39:06.284Z,100479.39
2023-03-18T19:41:35.531Z,100481.77
2023-03-18T19:44:11.562Z,100480.20
2023-03-18T19:46:44.674Z,100480.20
2023-03-18T19:49:15.965Z,100477.77
2023-03-18T19:51:44.381Z,100475.33
2023-03-18T19:54:19.188Z,100471.17
2023-03-18T19:56:47.515Z,100470.81
2023-03-18T19:59:23.221Z,100466.46
2023-03-18T20:01:51.664Z,100467.66
2023-03-18T20:04:19.843Z,100466.80
2023-03-18T20:06:50.725Z,100463.16
2023-03-18T20:09:18.825Z,100459.52
2023-03-18T20:11:47.129Z,100457.42
2023-03-18T20:14:25.787Z,100456.21
2023-03-18T20:16:54.864Z,100455.67
2023-03-18T20:19:23.049Z,100455.86
2023-03-18T20:21:52.010Z,100453.27
2023-03-18T20:24:22.102Z,100453.11
2023-03-18T20:26:53.778Z,100453.97
2023-03-18T20:29:24.158Z,100453.30
2023-03-18T20:31:52.232Z,100453.30
2023-03-18T20:34:21.180Z,100448.80
2023-03-18T20:36:50.369Z,100450.01
2023-03-18T20:39:24.380Z,100446.88
2023-03-18T20:41:57.688Z,100447.56
2023-03-18T20:44:25.864Z,100445.15
2023-03-18T20:46:53.813Z,100444.45
2023-03-18T20:49:23.103Z,100445.50
2023-03-18T20:51:51.875Z,100444.45
2023-03-18T20:54:21.209Z,100443.23
2023-03-18T20:56:51.409Z,100440.64
2023-03-18T20:59:19.346Z,100441.66
2023-03-18T21:01:48.021Z,100435.92
2023-03-18T21:04:19.440Z,100438.17
2023-03-18T21:06:48.803Z,100435.05
2023-03-18T21:09:17.592Z,100431.23
2023-03-18T21:11:52.030Z,100428.62
2023-03-18T21:14:21.636Z,100431.55
2023-03-18T21:16:51.887Z,100428.42
2023-03-18T21:19:21.342Z,100430.84
2023-03-18T21:21:49.428Z,100427.88
2023-03-18T21:24:25.678Z,100432.88
2023-03-18T21:27:04.237Z,100433.73
2023-03-18T21:29:33.807Z,100435.94
2023-03-18T21:32:03.827Z,100436.95
2023-03-18T21:34:33.039Z,100437.80
2023-03-18T21:37:03.876Z,100440.89
2023-03-18T21:39:34.315Z,100442.27
2023-03-18T21:42:02.274Z,100446.41
2023-03-18T21:44:30.552Z,100445.52
2023-03-18T21:46:58.559Z,100443.77
2023-03-18T21:49:27.256Z,100440.11
2023-03-18T21:51:55.226Z,100442.00
2023-03-18T21:54:24.401Z,100445.09
2023-03-18T21:56:55.142Z,100447.70
2023-03-18T21:59:23.791Z,100448.40
2023-03-18T22:01:52.981Z,100445.15
2023-03-18T22:04:22.266Z,100442.77
2023-03-18T22:06:51.151Z,100441.40
2023-03-18T22:09:19.190Z,100437.98
2023-03-18T22:11:47.103Z,100437.15
2023-03-18T22:14:15.127Z,100435.81
2023-03-18T22:16:44.258Z,100436.56
2023-03-18T22:19:12.622Z,100436.79
2023-03-18T22:21:40.840Z,100436.64
2023-03-18T22:24:11.550Z,100434.41
2023-03-18T22:26:40.165Z,100432.73
2023-03-18T22:29:12.542Z,100433.27
2023-03-18T22:31:43.834Z,100435.36
2023-03-18T22:34:22.608Z,100434.50
2023-03-18T22:36:50.682Z,100433.63
2023-03-18T22:39:18.955Z,100434.50
2023-03-18T22:41:54.000Z,100441.42
2023-03-18T22:44:22.574Z,100437.64
2023-03-18T22:46:50.801Z,100435.58
2023-03-18T22:49:20.043Z,100433.16
2023-03-18T22:51:48.858Z,100432.30
2023-03-18T22:54:19.285Z,100432.84
2023-03-18T22:56:48.440Z,100437.52
2023-03-18T22:59:16.828Z,100435.78
2023-03-18T23:01:46.620Z,100431.30
2023-03-18T23:04:15.067Z,100429.05
2023-03-18T23:06:44.500Z,100428.02
2023-03-18T23:09:13.090Z,100427.17
2023-03-18T23:11:41.314Z,100422.33
2023-03-18T23:14:10.569Z,100420.77
2023-03-18T23:16:40.838Z,100418.66
2023-03-18T23:19:08.956Z,100413.98
2023-03-18T23:21:37.973Z,100413.81
2023-03-18T23:24:06.646Z,100406.20
2023-03-18T23:26:36.363Z,100401.03
2023-03-18T23:29:05.006Z,100399.15
2023-03-18T23:31:33.038Z,100401.76
2023-03-18T23:34:01.810Z,100401.08
2023-03-18T23:36:30.289Z,100401.95
2023-03-18T23:39:00.347Z,100398.14
2023-03-18T23:41:30.450Z,100396.94
2023-03-18T23:43:58.547Z,100392.27
2023-03-18T23:46:27.775Z,100393.46
2023-03-18T23:48:55.900Z,100393.30
2023-03-18T23:51:23.874Z,100387.77
2023-03-18T23:53:53.726Z,100387.95
2023-03-18T23:56:26.130Z,100379.98
2023-03-18T23:58:54.139Z,100380.31
